createdAt,value
2022-09-06T00:00:51.914Z,99353.40
2022-09-06T00:03:49.776Z,99353.80
2022-09-06T00:06:47.317Z,99357.20
2022-09-06T00:09:44.768Z,99348.80
2022-09-06T00:12:42.335Z,99340.00
2022-09-06T00:15:39.839Z,99341.20
2022-09-06T00:18:37.735Z,99337.80
2022-09-06T00:21:35.812Z,99331.60
2022-09-06T00:24:33.278Z,99330.80
2022-09-06T00:27:31.237Z,99332.60
2022-09-06T00:30:28.686Z,99327.20
2022-09-06T00:33:26.141Z,99329.60
2022-09-06T00:36:23.608Z,99332.40
2022-09-06T00:39:21.074Z,99337.60
2022-09-06T00:42:18.543Z,99339.20
2022-09-06T00:45:15.984Z,99338.80
2022-09-06T00:48:13.480Z,99330.40
2022-09-06T00:51:10.968Z,99325.60
2022-09-06T00:54:08.471Z,99326.00
2022-09-06T00:57:05.959Z,99325.00
2022-09-06T01:00:03.535Z,99327.00
2022-09-06T01:03:01.053Z,99326.40
2022-09-06T01:05:58.525Z,99327.20
2022-09-06T01:08:56.008Z,99325.60
2022-09-06T01:11:53.478Z,99324.20
2022-09-06T01:14:50.955Z,99323.20
2022-09-06T01:17:48.544Z,99315.00
2022-09-06T01:20:46.009Z,99312.80
2022-09-06T01:23:43.504Z,99313.20
2022-09-06T01:26:40.974Z,99317.20
2022-09-06T01:29:38.461Z,99316.00
2022-09-06T01:32:35.934Z,99315.60
2022-09-06T01:35:33.473Z,99317.00
2022-09-06T01:38:30.972Z,99322.60
2022-09-06T01:41:28.433Z,99323.00
2022-09-06T01:44:25.904Z,99325.20
2022-09-06T01:47:23.376Z,99322.20
2022-09-06T01:50:20.872Z,99321.80
2022-09-06T01:53:18.357Z,99317.80
2022-09-06T01:56:15.875Z,99318.80
2022-09-06T01:59:13.367Z,99312.00
2022-09-06T02:02:11.204Z,99307.60
2022-09-06T02:05:08.719Z,99312.20
2022-09-06T02:08:07.973Z,99305.40
2022-09-06T02:11:05.444Z,99303.60
2022-09-06T02:14:02.957Z,99299.60
2022-09-06T02:17:00.446Z,99295.40
2022-09-06T02:19:57.962Z,99293.40
2022-09-06T02:22:56.555Z,99288.80
2022-09-06T02:25:54.032Z,99283.60
2022-09-06T02:28:51.504Z,99284.20
2022-09-06T02:31:48.980Z,99282.80
2022-09-06T02:34:46.853Z,99285.80
2022-09-06T02:37:44.326Z,99287.80
2022-09-06T02:40:42.451Z,99290.00
2022-09-06T02:43:40.298Z,99288.80
2022-09-06T02:46:37.801Z,99287.40
2022-09-06T02:49:35.275Z,99290.20
2022-09-06T02:52:32.731Z,99287.80
2022-09-06T02:55:30.207Z,99284.60
2022-09-06T02:58:27.868Z,99280.20
2022-09-06T03:01:25.493Z,99280.60
2022-09-06T03:04:23.112Z,99283.40
2022-09-06T03:07:20.582Z,99280.80
2022-09-06T03:10:18.058Z,99278.80
2022-09-06T03:13:15.811Z,99275.20
2022-09-06T03:16:13.633Z,99274.80
2022-09-06T03:19:11.185Z,99283.20
2022-09-06T03:22:08.656Z,99287.20
2022-09-06T03:25:06.128Z,99276.20
2022-09-06T03:28:03.594Z,99273.80
2022-09-06T03:31:01.165Z,99271.20
2022-09-06T03:33:58.662Z,99265.40
2022-09-06T03:36:56.193Z,99266.60
2022-09-06T03:39:54.088Z,99265.60
2022-09-06T03:42:51.614Z,99259.60
2022-09-06T03:45:49.177Z,99261.40
2022-09-06T03:48:47.389Z,99261.40
2022-09-06T03:51:44.877Z,99262.40
2022-09-06T03:54:42.323Z,99262.20
2022-09-06T03:57:39.814Z,99264.80
2022-09-06T04:00:37.310Z,99265.00
2022-09-06T04:03:34.800Z,99269.80
2022-09-06T04:06:32.265Z,99275.60
2022-09-06T04:09:29.750Z,99272.20
2022-09-06T04:12:27.237Z,99266.00
2022-09-06T04:15:24.723Z,99268.20
2022-09-06T04:18:22.273Z,99261.00
2022-09-06T04:21:19.846Z,99258.20
2022-09-06T04:24:17.326Z,99261.80
2022-09-06T04:27:14.803Z,99258.20
2022-09-06T04:30:12.292Z,99263.20
2022-09-06T04:33:09.774Z,99260.60
2022-09-06T04:36:07.301Z,99255.00
2022-09-06T04:39:05.597Z,99261.20
2022-09-06T04:42:03.094Z,99260.40
2022-09-06T04:45:00.560Z,99262.60
2022-09-06T04:47:58.049Z,99263.20
2022-09-06T04:50:55.555Z,99267.80
2022-09-06T04:53:53.021Z,99268.40
2022-09-06T04:56:50.567Z,99272.60
2022-09-06T04:59:48.030Z,99277.00
2022-09-06T05:02:45.812Z,99273.20
2022-09-06T05:05:43.307Z,99279.60
2022-09-06T05:08:41.175Z,99279.40
2022-09-06T05:11:38.684Z,99280.00
2022-09-06T05:14:36.174Z,99277.80
2022-09-06T05:17:33.645Z,99279.40
2022-09-06T05:20:31.133Z,99283.60
2022-09-06T05:23:28.611Z,99278.00
2022-09-06T05:26:26.143Z,99277.60
2022-09-06T05:29:26.475Z,99281.40
2022-09-06T05:32:26.310Z,99288.00
2022-09-06T05:35:23.798Z,99287.60
2022-09-06T05:38:21.341Z,99295.00
2022-09-06T05:41:18.832Z,99295.20
2022-09-06T05:44:16.321Z,99293.60
2022-09-06T05:47:13.800Z,99293.80
2022-09-06T05:50:11.283Z,99293.00
2022-09-06T05:53:08.768Z,99293.00
2022-09-06T05:56:06.213Z,99289.60
2022-09-06T05:59:04.589Z,99287.00
2022-09-06T06:02:06.625Z,99289.40
2022-09-06T06:05:05.334Z,99296.40
2022-09-06T06:08:02.795Z,99294.20
2022-09-06T06:11:00.371Z,99291.40
2022-09-06T06:13:59.061Z,99292.80
2022-09-06T06:16:56.616Z,99290.00
2022-09-06T06:19:54.880Z,99293.80
2022-09-06T06:22:52.464Z,99292.40
2022-09-06T06:25:49.930Z,99297.20
2022-09-06T06:28:47.410Z,99295.20
2022-09-06T06:31:45.005Z,99292.40
2022-09-06T06:34:42.571Z,99294.60
2022-09-06T06:37:40.053Z,99288.00
2022-09-06T06:40:37.528Z,99284.40
2022-09-06T06:43:38.116Z,99283.00
2022-09-06T06:46:35.711Z,99286.60
2022-09-06T06:49:33.193Z,99286.80
2022-09-06T06:52:30.722Z,99293.00
2022-09-06T06:55:28.184Z,99293.00
2022-09-06T06:58:25.686Z,99301.60
2022-09-06T07:01:23.346Z,99293.20
2022-09-06T07:04:20.926Z,99295.40
2022-09-06T07:07:35.559Z,99299.80
2022-09-06T07:10:35.677Z,99296.20
2022-09-06T07:13:34.338Z,99289.80
2022-09-06T07:16:31.843Z,99293.00
2022-09-06T07:22:46.793Z,99290.60
2022-09-06T07:25:44.259Z,99295.00
2022-09-06T07:28:41.735Z,99294.40
2022-09-06T07:34:56.666Z,99310.60
2022-09-06T07:37:54.143Z,99312.80
2022-09-06T07:40:51.639Z,99316.60
2022-09-06T07:43:51.507Z,99318.00
2022-09-06T07:46:49.092Z,99328.00
2022-09-06T07:53:07.008Z,99324.20
2022-09-06T07:56:04.767Z,99324.00
2022-09-06T07:59:02.254Z,99321.20
2022-09-06T08:01:59.783Z,99317.00
2022-09-06T08:04:57.342Z,99321.00
2022-09-06T08:11:12.306Z,99319.80
2022-09-06T08:14:10.054Z,99326.60
2022-09-06T08:17:07.517Z,99326.60
2022-09-06T08:20:05.019Z,99328.00
2022-09-06T08:23:02.489Z,99326.20
2022-09-06T08:25:59.998Z,99327.20
2022-09-06T08:28:58.264Z,99325.00
2022-09-06T08:31:55.808Z,99323.00
2022-09-06T08:34:53.365Z,99317.20
2022-09-06T08:37:50.859Z,99318.80
2022-09-06T08:40:48.352Z,99316.20
2022-09-06T08:43:46.237Z,99321.60
2022-09-06T08:46:43.810Z,99320.00
2022-09-06T08:49:41.326Z,99316.80
2022-09-06T08:52:45.310Z,99320.00
2022-09-06T08:55:53.035Z,99316.60
2022-09-06T08:58:50.504Z,99319.20
2022-09-06T09:01:48.057Z,99316.60
2022-09-06T09:04:45.654Z,99317.40
2022-09-06T09:07:43.149Z,99317.00
2022-09-06T09:10:40.769Z,99314.60
2022-09-06T09:13:38.393Z,99312.00
2022-09-06T09:16:35.944Z,99310.60
2022-09-06T09:19:36.895Z,99312.40
2022-09-06T09:22:34.423Z,99309.80
2022-09-06T09:25:31.916Z,99306.60
2022-09-06T09:28:29.514Z,99305.00
2022-09-06T09:31:27.152Z,99298.60
2022-09-06T09:34:24.663Z,99295.40
2022-09-06T09:40:40.498Z,99291.20
2022-09-06T09:43:37.983Z,99290.60
2022-09-06T09:46:35.515Z,99284.40
2022-09-06T09:49:33.449Z,99280.00
2022-09-06T09:52:31.090Z,99277.20
2022-09-06T09:55:28.587Z,99277.40
2022-09-06T09:58:26.145Z,99279.40
2022-09-06T10:01:23.684Z,99277.60
2022-09-06T10:07:38.677Z,99275.40
2022-09-06T10:10:36.168Z,99275.80
2022-09-06T10:13:34.488Z,99269.80
2022-09-06T10:16:32.047Z,99272.80
2022-09-06T10:19:29.568Z,99264.20
2022-09-06T10:22:27.053Z,99265.00
2022-09-06T10:25:24.521Z,99270.00
2022-09-06T10:28:21.994Z,99273.60
2022-09-06T10:31:19.552Z,99272.40
2022-09-06T10:34:17.430Z,99271.60
2022-09-06T10:37:15.124Z,99267.80
2022-09-06T10:40:12.761Z,99263.20
2022-09-06T10:43:10.473Z,99263.00
2022-09-06T10:46:09.529Z,99268.40
2022-09-06T10:49:07.081Z,99265.40
2022-09-06T10:52:04.546Z,99267.60
2022-09-06T10:55:04.838Z,99260.60
2022-09-06T10:58:20.652Z,99260.20
2022-09-06T11:01:18.922Z,99259.00
2022-09-06T11:04:20.251Z,99257.20
2022-09-06T11:07:17.718Z,99254.60
2022-09-06T11:10:15.214Z,99253.60
2022-09-06T11:13:12.696Z,99253.20
2022-09-06T11:16:10.321Z,99243.40
2022-09-06T11:19:08.016Z,99239.20
2022-09-06T11:22:05.480Z,99238.60
2022-09-06T11:25:02.975Z,99239.60
2022-09-06T11:28:00.445Z,99242.80
2022-09-06T11:30:57.998Z,99238.60
2022-09-06T11:33:58.372Z,99234.00
2022-09-06T11:36:58.322Z,99232.80
2022-09-06T11:43:13.259Z,99226.80
2022-09-06T11:46:10.784Z,99226.00
2022-09-06T11:49:08.306Z,99226.00
2022-09-06T11:52:05.785Z,99228.80
2022-09-06T11:55:04.196Z,99226.40
2022-09-06T11:58:01.665Z,99230.00
2022-09-06T12:00:59.125Z,99225.00
2022-09-06T12:04:05.543Z,99228.40
2022-09-06T12:07:04.607Z,99224.80
2022-09-06T12:10:02.128Z,99212.80
2022-09-06T12:12:59.603Z,99215.00
2022-09-06T12:15:57.714Z,99219.80
2022-09-06T12:18:55.230Z,99221.20
2022-09-06T12:21:52.886Z,99218.40
2022-09-06T12:24:50.362Z,99221.60
2022-09-06T12:27:47.842Z,99219.00
2022-09-06T12:30:45.324Z,99219.20
2022-09-06T12:33:44.360Z,99222.60
2022-09-06T12:36:41.839Z,99215.00
2022-09-06T12:39:39.341Z,99207.60
2022-09-06T12:42:36.862Z,99204.80
2022-09-06T12:45:34.368Z,99200.20
2022-09-06T12:48:31.857Z,99199.60
2022-09-06T12:51:29.375Z,99196.40
2022-09-06T12:54:26.863Z,99199.20
2022-09-06T12:57:24.386Z,99202.40
2022-09-06T13:00:21.947Z,99194.00
2022-09-06T13:03:19.448Z,99189.40
2022-09-06T13:06:20.395Z,99186.80
2022-09-06T13:09:21.855Z,99183.00
2022-09-06T13:12:19.362Z,99186.40
2022-09-06T13:15:16.868Z,99179.60
2022-09-06T13:18:14.342Z,99178.20
2022-09-06T13:21:14.443Z,99182.20
2022-09-06T13:24:12.738Z,99175.80
2022-09-06T13:27:10.217Z,99175.80
2022-09-06T13:30:09.232Z,99173.80
2022-09-06T13:33:07.173Z,99168.40
2022-09-06T13:36:04.633Z,99164.40
2022-09-06T13:39:04.248Z,99161.00
2022-09-06T13:42:02.003Z,99160.20
2022-09-06T13:45:02.101Z,99162.60
2022-09-06T13:48:13.062Z,99161.80
2022-09-06T13:51:18.483Z,99154.80
2022-09-06T13:54:15.970Z,99154.60
2022-09-06T13:57:13.442Z,99152.40
2022-09-06T14:00:11.618Z,99151.80
2022-09-06T14:03:09.099Z,99158.20
2022-09-06T14:06:07.282Z,99158.40
2022-09-06T14:09:07.642Z,99160.60
2022-09-06T14:12:06.076Z,99160.40
2022-09-06T14:15:03.780Z,99162.80
2022-09-06T14:18:01.249Z,99156.80
2022-09-06T14:20:59.285Z,99156.60
2022-09-06T14:23:58.877Z,99154.40
2022-09-06T14:26:59.576Z,99153.40
2022-09-06T14:29:57.076Z,99153.40
2022-09-06T14:32:54.552Z,99149.00
2022-09-06T14:35:52.517Z,99142.20
2022-09-06T14:38:49.985Z,99140.00
2022-09-06T14:41:47.477Z,99141.40
2022-09-06T14:44:45.009Z,99138.00
2022-09-06T14:47:42.499Z,99139.60
2022-09-06T14:50:39.977Z,99132.80
2022-09-06T14:53:40.774Z,99134.60
2022-09-06T14:56:40.128Z,99134.60
2022-09-06T14:59:37.616Z,99135.40
2022-09-06T15:02:35.197Z,99132.00
2022-09-06T15:05:32.893Z,99130.40
2022-09-06T15:08:30.377Z,99135.20
2022-09-06T15:11:30.338Z,99133.60
2022-09-06T15:14:29.449Z,99140.20
2022-09-06T15:17:26.966Z,99137.00
2022-09-06T15:20:24.431Z,99136.00
2022-09-06T15:23:25.299Z,99132.60
2022-09-06T15:26:23.332Z,99132.80
2022-09-06T15:29:21.544Z,99137.80
2022-09-06T15:32:19.033Z,99130.20
2022-09-06T15:35:17.745Z,99130.00
2022-09-06T15:38:15.475Z,99126.00
2022-09-06T15:41:12.949Z,99125.80
2022-09-06T15:44:10.796Z,99123.00
2022-09-06T15:47:08.264Z,99124.00
2022-09-06T15:50:07.130Z,99128.80
2022-09-06T15:53:04.601Z,99121.20
2022-09-06T15:56:02.833Z,99120.60
2022-09-06T15:59:00.318Z,99115.40
2022-09-06T16:01:57.850Z,99118.00
2022-09-06T16:04:55.367Z,99115.00
2022-09-06T16:07:52.872Z,99116.40
2022-09-06T16:10:50.367Z,99111.00
2022-09-06T16:13:47.837Z,99114.80
2022-09-06T16:16:45.934Z,99114.40
2022-09-06T16:19:44.755Z,99106.40
2022-09-06T16:22:42.227Z,99111.00
2022-09-06T16:25:39.719Z,99113.00
2022-09-06T16:28:37.215Z,99112.20
2022-09-06T16:31:39.790Z,99109.00
2022-09-06T16:34:38.554Z,99109.20
2022-09-06T16:37:36.288Z,99112.40
2022-09-06T16:40:33.738Z,99110.40
2022-09-06T16:43:31.220Z,99115.40
2022-09-06T16:46:29.807Z,99116.60
2022-09-06T16:49:27.435Z,99115.00
2022-09-06T16:52:25.035Z,99112.40
2022-09-06T16:55:22.516Z,99111.80
2022-09-06T16:58:19.988Z,99112.00
2022-09-06T17:01:17.559Z,99119.80
2022-09-06T17:04:15.135Z,99122.40
2022-09-06T17:07:12.605Z,99121.00
2022-09-06T17:10:10.120Z,99124.40
2022-09-06T17:13:07.703Z,99122.20
2022-09-06T17:16:22.932Z,99127.60
2022-09-06T17:19:20.481Z,99128.00
2022-09-06T17:22:17.937Z,99127.20
2022-09-06T17:25:15.703Z,99127.60
2022-09-06T17:28:13.427Z,99134.80
2022-09-06T17:31:11.372Z,99135.20
2022-09-06T17:34:09.190Z,99139.40
2022-09-06T17:37:06.762Z,99142.60
2022-09-06T17:40:04.520Z,99145.20
2022-09-06T17:43:02.583Z,99142.20
2022-09-06T17:46:00.497Z,99148.60
2022-09-06T17:48:58.454Z,99149.80
2022-09-06T17:51:56.825Z,99148.80
2022-09-06T17:54:55.360Z,99153.80
2022-09-06T17:57:53.122Z,99157.80
2022-09-06T18:00:51.423Z,99159.80
2022-09-06T18:03:49.406Z,99156.00
2022-09-06T18:06:48.366Z,99152.40
2022-09-06T18:09:46.904Z,99155.20
2022-09-06T18:12:44.390Z,99161.80
2022-09-06T18:15:42.729Z,99165.40
2022-09-06T18:18:40.290Z,99160.80
2022-09-06T18:21:37.812Z,99167.80
2022-09-06T18:24:35.658Z,99167.00
2022-09-06T18:27:33.276Z,99174.80
2022-09-06T18:30:31.162Z,99175.40
2022-09-06T18:33:29.079Z,99176.00
2022-09-06T18:36:31.755Z,99179.40
2022-09-06T18:39:30.301Z,99174.80
2022-09-06T18:42:27.866Z,99178.60
2022-09-06T18:45:25.464Z,99171.00
2022-09-06T18:48:23.233Z,99174.40
2022-09-06T18:51:21.174Z,99175.20
2022-09-06T18:54:19.069Z,99170.00
2022-09-06T18:57:17.723Z,99177.40
2022-09-06T19:00:16.157Z,99176.40
2022-09-06T19:03:14.099Z,99175.00
2022-09-06T19:06:12.126Z,99177.40
2022-09-06T19:09:10.039Z,99181.60
2022-09-06T19:12:07.641Z,99176.80
2022-09-06T19:15:05.141Z,99173.00
2022-09-06T19:18:03.578Z,99173.20
2022-09-06T19:21:01.509Z,99170.60
2022-09-06T19:23:59.475Z,99164.00
2022-09-06T19:26:57.573Z,99165.80
2022-09-06T19:29:55.471Z,99163.40
2022-09-06T19:32:53.444Z,99170.20
2022-09-06T19:36:10.577Z,99173.40
2022-09-06T19:39:09.525Z,99174.60
2022-09-06T19:42:07.721Z,99168.00
2022-09-06T19:45:06.523Z,99170.60
2022-09-06T19:48:04.438Z,99172.60
2022-09-06T19:51:02.840Z,99168.40
2022-09-06T19:54:01.274Z,99163.20
2022-09-06T19:56:59.294Z,99165.20
2022-09-06T19:59:57.258Z,99167.00
2022-09-06T20:02:55.033Z,99164.80
2022-09-06T20:05:52.863Z,99155.80
2022-09-06T20:08:50.777Z,99155.00
2022-09-06T20:11:48.722Z,99159.60
2022-09-06T20:14:46.944Z,99153.20
2022-09-06T20:17:44.751Z,99154.60
2022-09-06T20:20:42.661Z,99150.60
2022-09-06T20:23:40.564Z,99151.00
2022-09-06T20:26:38.443Z,99150.00
2022-09-06T20:29:36.276Z,99142.80
2022-09-06T20:32:34.119Z,99141.00
2022-09-06T20:35:32.060Z,99146.40
2022-09-06T20:38:30.114Z,99139.00
2022-09-06T20:41:27.849Z,99142.00
2022-09-06T20:44:25.679Z,99146.20
2022-09-06T20:47:23.514Z,99140.80
2022-09-06T20:50:21.907Z,99132.80
2022-09-06T20:53:19.906Z,99130.80
2022-09-06T20:56:17.504Z,99131.80
2022-09-06T20:59:15.256Z,99129.20
2022-09-06T21:02:12.819Z,99129.80
2022-09-06T21:05:10.628Z,99123.40
2022-09-06T21:08:08.113Z,99117.40
2022-09-06T21:11:05.629Z,99119.00
2022-09-06T21:14:03.427Z,99114.80
2022-09-06T21:17:00.901Z,99120.40
2022-09-06T21:19:58.442Z,99116.40
2022-09-06T21:22:56.056Z,99117.40
2022-09-06T21:25:53.540Z,99116.80
2022-09-06T21:28:51.021Z,99115.80
2022-09-06T21:31:48.693Z,99115.00
2022-09-06T21:34:46.355Z,99113.40
2022-09-06T21:37:43.841Z,99107.40
2022-09-06T21:40:41.343Z,99104.40
2022-09-06T21:43:38.813Z,99109.20
2022-09-06T21:46:36.524Z,99114.20
2022-09-06T21:49:34.051Z,99118.60
2022-09-06T21:52:32.526Z,99113.40
2022-09-06T21:55:30.040Z,99113.20
2022-09-06T21:58:27.542Z,99102.80
2022-09-06T22:01:25.094Z,99101.20
2022-09-06T22:04:23.305Z,99099.40
2022-09-06T22:07:20.811Z,99100.80
2022-09-06T22:10:18.296Z,99100.20
2022-09-06T22:13:15.749Z,99097.00
2022-09-06T22:16:13.314Z,99097.40
2022-09-06T22:19:10.927Z,99097.60
2022-09-06T22:22:08.426Z,99097.40
2022-09-06T22:25:05.975Z,99098.40
2022-09-06T22:28:03.434Z,99096.80
2022-09-06T22:31:00.943Z,99093.00
2022-09-06T22:33:58.456Z,99083.60
2022-09-06T22:36:55.943Z,99084.40
2022-09-06T22:39:53.500Z,99086.00
2022-09-06T22:42:51.027Z,99082.80
2022-09-06T22:45:51.972Z,99085.20
2022-09-06T22:48:50.494Z,99081.20
2022-09-06T22:51:48.002Z,99087.60
2022-09-06T22:54:45.597Z,99082.40
2022-09-06T22:57:43.073Z,99080.00
2022-09-06T23:00:40.608Z,99078.00
2022-09-06T23:03:38.149Z,99073.60
2022-09-06T23:06:35.715Z,99064.60
2022-09-06T23:09:33.200Z,99063.80
2022-09-06T23:12:30.700Z,99062.20
2022-09-06T23:15:28.184Z,99066.80
2022-09-06T23:18:25.690Z,99069.40
2022-09-06T23:21:23.182Z,99061.80
2022-09-06T23:24:20.738Z,99054.40
2022-09-06T23:27:18.243Z,99051.40
2022-09-06T23:30:15.704Z,99043.60
2022-09-06T23:33:13.286Z,99045.80
2022-09-06T23:36:10.749Z,99050.60
2022-09-06T23:39:08.749Z,99047.00
2022-09-06T23:42:06.230Z,99040.20
2022-09-06T23:45:03.723Z,99033.20
2022-09-06T23:48:01.256Z,99034.20
2022-09-06T23:50:58.734Z,99035.00
2022-09-06T23:53:56.263Z,99029.80
2022-09-06T23:56:53.743Z,99028.80
2022-09-06T23:59:51.234Z,99034.80
